Kezdőlap
METAR-TAF:

METAR-TAF

Repülőterek :

Rarotonga, Cook-szigetek

földrajzi szélesség: 21-12S, földrajzi hosszúság: 159-49W, magasság: 7 m

Jelenlegi meteorológiai megfigyelések

A jelentés 33 perccel ezelõtt készült, 21:00 UTC
Kelet-északkeleti szél 11 kt
Hőmérséklet 28°C
Páratartalom 89%
Légköri nyomás 1015 hPa
Látótávolság 10 km, vagy több

METAR: NCRG 272100Z AUTO 06011KT 9999 SCT009/// 28/26 Q1015

Idő: 11:33 (21:33 UTC)

Előrejelzés

A jelentés 4 órával és 23 perccel ezelõtt készült, 17:10 UTC
Az előrejelzés 27-én 18 óra UTC és 28-én 18 óra UTC között érvényes
Keleti szél 8 kt
Látótávolság 10 km, vagy több
Szórványos felhőzet 1800 lábon

TAF: NCRG 271710Z 2718/2818 09008KT 9999 SCT018

Meteorológiai megfigyelések és előrejelzések több, mint 4000 repülőtéren (METAR és TAF jelentéseket).

A térképen piros és sárga pontok jelzik az elérhető meteorológiai állomásokat.

Mozgassa az egeret a pont fölött, hogy megjelenjen az állomás neve.

Azután kattintson az időjárási megfigyelések és előrejelzések megtekintéséhez.

A térkép megváltoztatása: kattintson a fekete keresztel jelölt zöld gombra ráközelítéshez, a vonallal jelölt zöld gombra távolításhoz, vagy a zöld nyilakra a szomszédos térképek eléréséhez.


METAR-TAF: